sensor_id;sensor_type;location;lat;lon;timestamp;P1;durP1;ratioP1;P2;durP2;ratioP2
67146;SDS011;70072;52.036;5.558;2023-05-10T00:02:16;11.77;;;8.57;;
67146;SDS011;70072;52.036;5.558;2023-05-10T00:04:41;13.75;;;9.18;;
67146;SDS011;70072;52.036;5.558;2023-05-10T00:07:07;13.10;;;9.05;;
67146;SDS011;70072;52.036;5.558;2023-05-10T00:09:32;12.07;;;9.35;;
67146;SDS011;70072;52.036;5.558;2023-05-10T00:11:58;12.27;;;9.43;;
67146;SDS011;70072;52.036;5.558;2023-05-10T00:14:23;15.15;;;9.02;;
67146;SDS011;70072;52.036;5.558;2023-05-10T00:16:52;14.60;;;9.55;;
67146;SDS011;70072;52.036;5.558;2023-05-10T00:19:17;14.32;;;9.90;;
67146;SDS011;70072;52.036;5.558;2023-05-10T00:21:43;13.18;;;10.10;;
67146;SDS011;70072;52.036;5.558;2023-05-10T00:24:08;15.43;;;10.27;;
67146;SDS011;70072;52.036;5.558;2023-05-10T00:26:34;16.42;;;10.73;;
67146;SDS011;70072;52.036;5.558;2023-05-10T00:28:59;11.68;;;9.60;;
67146;SDS011;70072;52.036;5.558;2023-05-10T00:31:25;12.73;;;11.00;;
67146;SDS011;70072;52.036;5.558;2023-05-10T00:33:51;15.00;;;11.00;;
67146;SDS011;70072;52.036;5.558;2023-05-10T00:36:16;19.67;;;10.88;;
67146;SDS011;70072;52.036;5.558;2023-05-10T00:38:42;14.10;;;10.48;;
67146;SDS011;70072;52.036;5.558;2023-05-10T00:41:07;15.57;;;10.50;;
67146;SDS011;70072;52.036;5.558;2023-05-10T00:43:33;13.35;;;11.07;;
67146;SDS011;70072;52.036;5.558;2023-05-10T00:45:59;18.17;;;11.40;;
67146;SDS011;70072;52.036;5.558;2023-05-10T00:48:25;17.83;;;12.10;;
67146;SDS011;70072;52.036;5.558;2023-05-10T00:50:51;13.63;;;11.15;;
67146;SDS011;70072;52.036;5.558;2023-05-10T00:53:16;19.00;;;12.45;;
67146;SDS011;70072;52.036;5.558;2023-05-10T00:55:42;17.60;;;12.10;;
67146;SDS011;70072;52.036;5.558;2023-05-10T00:58:08;16.60;;;11.73;;
67146;SDS011;70072;52.036;5.558;2023-05-10T01:00:34;16.15;;;11.80;;
67146;SDS011;70072;52.036;5.558;2023-05-10T01:03:02;23.70;;;12.48;;
67146;SDS011;70072;52.036;5.558;2023-05-10T01:05:28;18.63;;;12.55;;
67146;SDS011;70072;52.036;5.558;2023-05-10T01:07:53;20.92;;;12.50;;
67146;SDS011;70072;52.036;5.558;2023-05-10T01:10:19;19.65;;;12.80;;
67146;SDS011;70072;52.036;5.558;2023-05-10T01:12:45;25.35;;;12.82;;
67146;SDS011;70072;52.036;5.558;2023-05-10T01:15:12;21.42;;;12.98;;
67146;SDS011;70072;52.036;5.558;2023-05-10T01:17:39;17.85;;;12.18;;
67146;SDS011;70072;52.036;5.558;2023-05-10T01:20:07;17.70;;;12.05;;
67146;SDS011;70072;52.036;5.558;2023-05-10T01:25:37;20.80;;;13.43;;
67146;SDS011;70072;52.036;5.558;2023-05-10T01:28:34;19.48;;;12.88;;
67146;SDS011;70072;52.036;5.558;2023-05-10T01:34:23;18.27;;;13.07;;
67146;SDS011;70072;52.036;5.558;2023-05-10T01:37:02;16.10;;;13.00;;
67146;SDS011;70072;52.036;5.558;2023-05-10T01:40:23;17.90;;;12.07;;
67146;SDS011;70072;52.036;5.558;2023-05-10T01:42:33;20.85;;;12.90;;
67146;SDS011;70072;52.036;5.558;2023-05-10T01:48:24;20.83;;;13.25;;
67146;SDS011;70072;52.036;5.558;2023-05-10T01:50:52;21.35;;;13.13;;
67146;SDS011;70072;52.036;5.558;2023-05-10T01:53:20;30.98;;;14.32;;
67146;SDS011;70072;52.036;5.558;2023-05-10T01:55:49;18.20;;;13.38;;
67146;SDS011;70072;52.036;5.558;2023-05-10T01:58:29;27.25;;;13.98;;
67146;SDS011;70072;52.036;5.558;2023-05-10T02:00:58;18.73;;;13.07;;
67146;SDS011;70072;52.036;5.558;2023-05-10T02:03:26;19.92;;;14.02;;
67146;SDS011;70072;52.036;5.558;2023-05-10T02:05:54;18.23;;;13.00;;
67146;SDS011;70072;52.036;5.558;2023-05-10T02:08:21;27.75;;;13.93;;
67146;SDS011;70072;52.036;5.558;2023-05-10T02:10:53;25.40;;;13.25;;
67146;SDS011;70072;52.036;5.558;2023-05-10T02:13:21;19.60;;;14.10;;
67146;SDS011;70072;52.036;5.558;2023-05-10T02:15:49;19.23;;;13.73;;
67146;SDS011;70072;52.036;5.558;2023-05-10T02:18:16;20.50;;;14.43;;
67146;SDS011;70072;52.036;5.558;2023-05-10T02:20:43;25.85;;;13.93;;
67146;SDS011;70072;52.036;5.558;2023-05-10T02:23:11;24.15;;;14.02;;
67146;SDS011;70072;52.036;5.558;2023-05-10T02:25:37;23.08;;;14.48;;
67146;SDS011;70072;52.036;5.558;2023-05-10T02:28:04;25.08;;;14.55;;
67146;SDS011;70072;52.036;5.558;2023-05-10T02:30:32;26.63;;;14.65;;
67146;SDS011;70072;52.036;5.558;2023-05-10T02:32:59;22.63;;;15.20;;
67146;SDS011;70072;52.036;5.558;2023-05-10T02:35:26;21.25;;;14.75;;
67146;SDS011;70072;52.036;5.558;2023-05-10T02:37:52;21.02;;;15.10;;
67146;SDS011;70072;52.036;5.558;2023-05-10T02:40:19;23.88;;;14.40;;
67146;SDS011;70072;52.036;5.558;2023-05-10T02:42:47;23.63;;;14.85;;
67146;SDS011;70072;52.036;5.558;2023-05-10T02:45:18;25.00;;;16.00;;
67146;SDS011;70072;52.036;5.558;2023-05-10T02:47:47;25.88;;;15.10;;
67146;SDS011;70072;52.036;5.558;2023-05-10T02:50:13;25.77;;;15.27;;
67146;SDS011;70072;52.036;5.558;2023-05-10T02:52:43;26.92;;;15.57;;
67146;SDS011;70072;52.036;5.558;2023-05-10T02:55:16;19.92;;;14.68;;
67146;SDS011;70072;52.036;5.558;2023-05-10T02:57:48;19.67;;;14.55;;
67146;SDS011;70072;52.036;5.558;2023-05-10T03:00:17;23.37;;;15.90;;
67146;SDS011;70072;52.036;5.558;2023-05-10T03:02:43;21.98;;;15.07;;
67146;SDS011;70072;52.036;5.558;2023-05-10T03:05:08;25.67;;;15.35;;
67146;SDS011;70072;52.036;5.558;2023-05-10T03:07:34;26.40;;;15.65;;
67146;SDS011;70072;52.036;5.558;2023-05-10T03:10:00;27.63;;;15.68;;
67146;SDS011;70072;52.036;5.558;2023-05-10T03:17:45;21.30;;;15.27;;
67146;SDS011;70072;52.036;5.558;2023-05-10T03:20:29;26.50;;;16.30;;
67146;SDS011;70072;52.036;5.558;2023-05-10T03:23:12;26.85;;;15.55;;
67146;SDS011;70072;52.036;5.558;2023-05-10T03:25:56;22.80;;;15.95;;
67146;SDS011;70072;52.036;5.558;2023-05-10T03:28:24;25.30;;;16.05;;
67146;SDS011;70072;52.036;5.558;2023-05-10T03:30:52;28.65;;;16.50;;
67146;SDS011;70072;52.036;5.558;2023-05-10T03:33:19;23.38;;;16.30;;
67146;SDS011;70072;52.036;5.558;2023-05-10T03:35:45;24.27;;;16.25;;
67146;SDS011;70072;52.036;5.558;2023-05-10T03:38:13;23.17;;;15.80;;
67146;SDS011;70072;52.036;5.558;2023-05-10T03:40:39;27.98;;;16.35;;
67146;SDS011;70072;52.036;5.558;2023-05-10T03:43:05;26.13;;;16.35;;
67146;SDS011;70072;52.036;5.558;2023-05-10T03:45:31;36.75;;;16.73;;
67146;SDS011;70072;52.036;5.558;2023-05-10T03:47:57;33.33;;;15.95;;
67146;SDS011;70072;52.036;5.558;2023-05-10T03:50:23;42.75;;;16.98;;
67146;SDS011;70072;52.036;5.558;2023-05-10T03:52:49;37.83;;;16.90;;
67146;SDS011;70072;52.036;5.558;2023-05-10T03:55:15;33.30;;;17.58;;
67146;SDS011;70072;52.036;5.558;2023-05-10T03:57:41;39.80;;;17.25;;
67146;SDS011;70072;52.036;5.558;2023-05-10T04:00:07;29.55;;;18.15;;
67146;SDS011;70072;52.036;5.558;2023-05-10T04:02:33;34.08;;;17.88;;
67146;SDS011;70072;52.036;5.558;2023-05-10T04:04:59;31.10;;;17.40;;
67146;SDS011;70072;52.036;5.558;2023-05-10T04:07:24;40.13;;;18.33;;
67146;SDS011;70072;52.036;5.558;2023-05-10T04:09:50;35.17;;;18.60;;
67146;SDS011;70072;52.036;5.558;2023-05-10T04:12:18;32.08;;;17.45;;
67146;SDS011;70072;52.036;5.558;2023-05-10T04:14:43;28.67;;;17.88;;
67146;SDS011;70072;52.036;5.558;2023-05-10T04:17:09;29.67;;;17.58;;
67146;SDS011;70072;52.036;5.558;2023-05-10T04:19:35;33.55;;;17.65;;
67146;SDS011;70072;52.036;5.558;2023-05-10T04:22:01;33.15;;;18.20;;
67146;SDS011;70072;52.036;5.558;2023-05-10T04:24:28;31.42;;;18.65;;
67146;SDS011;70072;52.036;5.558;2023-05-10T04:26:54;29.75;;;17.10;;
67146;SDS011;70072;52.036;5.558;2023-05-10T04:29:20;32.35;;;17.40;;
67146;SDS011;70072;52.036;5.558;2023-05-10T04:31:45;30.92;;;17.83;;
67146;SDS011;70072;52.036;5.558;2023-05-10T04:34:11;28.77;;;17.27;;
67146;SDS011;70072;52.036;5.558;2023-05-10T04:36:37;29.65;;;17.35;;
67146;SDS011;70072;52.036;5.558;2023-05-10T04:39:03;32.17;;;17.70;;
67146;SDS011;70072;52.036;5.558;2023-05-10T04:41:29;29.48;;;18.13;;
67146;SDS011;70072;52.036;5.558;2023-05-10T04:43:54;30.70;;;17.33;;
67146;SDS011;70072;52.036;5.558;2023-05-10T04:46:20;25.10;;;16.65;;
67146;SDS011;70072;52.036;5.558;2023-05-10T04:48:46;25.80;;;17.15;;
67146;SDS011;70072;52.036;5.558;2023-05-10T04:51:12;30.67;;;16.33;;
67146;SDS011;70072;52.036;5.558;2023-05-10T04:53:38;27.23;;;16.10;;
67146;SDS011;70072;52.036;5.558;2023-05-10T04:56:04;28.02;;;17.23;;
67146;SDS011;70072;52.036;5.558;2023-05-10T04:58:29;34.85;;;18.02;;
67146;SDS011;70072;52.036;5.558;2023-05-10T05:00:55;25.75;;;16.08;;
67146;SDS011;70072;52.036;5.558;2023-05-10T05:03:21;26.45;;;16.58;;
67146;SDS011;70072;52.036;5.558;2023-05-10T05:05:47;29.73;;;17.65;;
67146;SDS011;70072;52.036;5.558;2023-05-10T05:08:13;28.95;;;17.45;;
67146;SDS011;70072;52.036;5.558;2023-05-10T05:10:39;29.25;;;17.13;;
67146;SDS011;70072;52.036;5.558;2023-05-10T05:13:05;29.80;;;16.27;;
67146;SDS011;70072;52.036;5.558;2023-05-10T05:15:30;28.15;;;16.98;;
67146;SDS011;70072;52.036;5.558;2023-05-10T05:17:56;29.15;;;17.42;;
67146;SDS011;70072;52.036;5.558;2023-05-10T05:20:22;28.88;;;16.80;;
67146;SDS011;70072;52.036;5.558;2023-05-10T05:22:48;29.52;;;17.30;;
67146;SDS011;70072;52.036;5.558;2023-05-10T05:25:14;28.17;;;17.17;;
67146;SDS011;70072;52.036;5.558;2023-05-10T05:27:40;27.75;;;17.10;;
67146;SDS011;70072;52.036;5.558;2023-05-10T05:30:06;32.13;;;16.73;;
67146;SDS011;70072;52.036;5.558;2023-05-10T05:32:32;31.85;;;16.67;;
67146;SDS011;70072;52.036;5.558;2023-05-10T05:34:58;26.60;;;16.88;;
67146;SDS011;70072;52.036;5.558;2023-05-10T05:37:24;30.55;;;17.15;;
67146;SDS011;70072;52.036;5.558;2023-05-10T05:39:52;39.03;;;16.95;;
67146;SDS011;70072;52.036;5.558;2023-05-10T05:42:19;30.67;;;16.58;;
67146;SDS011;70072;52.036;5.558;2023-05-10T05:44:45;28.77;;;17.15;;
67146;SDS011;70072;52.036;5.558;2023-05-10T05:47:10;25.95;;;16.23;;
67146;SDS011;70072;52.036;5.558;2023-05-10T05:49:36;28.50;;;16.95;;
67146;SDS011;70072;52.036;5.558;2023-05-10T05:52:02;27.17;;;15.43;;
67146;SDS011;70072;52.036;5.558;2023-05-10T05:54:29;44.50;;;17.20;;
67146;SDS011;70072;52.036;5.558;2023-05-10T05:56:59;34.90;;;17.13;;
67146;SDS011;70072;52.036;5.558;2023-05-10T05:59:25;38.95;;;17.23;;
67146;SDS011;70072;52.036;5.558;2023-05-10T06:01:51;39.30;;;17.23;;
67146;SDS011;70072;52.036;5.558;2023-05-10T06:04:17;39.35;;;17.55;;
67146;SDS011;70072;52.036;5.558;2023-05-10T06:06:43;43.30;;;17.58;;
67146;SDS011;70072;52.036;5.558;2023-05-10T06:09:09;63.17;;;18.83;;
67146;SDS011;70072;52.036;5.558;2023-05-10T06:11:35;60.53;;;17.95;;
67146;SDS011;70072;52.036;5.558;2023-05-10T06:14:01;49.05;;;17.75;;
67146;SDS011;70072;52.036;5.558;2023-05-10T06:16:29;48.63;;;17.85;;
67146;SDS011;70072;52.036;5.558;2023-05-10T06:18:55;35.47;;;17.45;;
67146;SDS011;70072;52.036;5.558;2023-05-10T06:21:20;38.15;;;16.65;;
67146;SDS011;70072;52.036;5.558;2023-05-10T06:23:46;38.95;;;17.73;;
67146;SDS011;70072;52.036;5.558;2023-05-10T06:26:12;35.50;;;16.40;;
67146;SDS011;70072;52.036;5.558;2023-05-10T06:28:38;31.48;;;17.35;;
67146;SDS011;70072;52.036;5.558;2023-05-10T06:31:05;33.28;;;16.52;;
67146;SDS011;70072;52.036;5.558;2023-05-10T06:33:31;30.75;;;16.80;;
67146;SDS011;70072;52.036;5.558;2023-05-10T06:35:57;30.88;;;15.85;;
67146;SDS011;70072;52.036;5.558;2023-05-10T06:38:23;35.42;;;16.15;;
67146;SDS011;70072;52.036;5.558;2023-05-10T06:40:49;37.67;;;17.27;;
67146;SDS011;70072;52.036;5.558;2023-05-10T06:43:14;32.25;;;17.40;;
67146;SDS011;70072;52.036;5.558;2023-05-10T06:45:40;31.75;;;16.48;;
67146;SDS011;70072;52.036;5.558;2023-05-10T06:48:06;31.27;;;16.58;;
67146;SDS011;70072;52.036;5.558;2023-05-10T06:50:32;45.88;;;16.67;;
67146;SDS011;70072;52.036;5.558;2023-05-10T06:52:58;34.15;;;17.38;;
67146;SDS011;70072;52.036;5.558;2023-05-10T06:55:24;39.60;;;17.98;;
67146;SDS011;70072;52.036;5.558;2023-05-10T06:57:50;33.90;;;17.40;;
67146;SDS011;70072;52.036;5.558;2023-05-10T07:00:16;41.90;;;16.95;;
67146;SDS011;70072;52.036;5.558;2023-05-10T07:02:42;34.20;;;17.00;;
67146;SDS011;70072;52.036;5.558;2023-05-10T07:05:08;41.72;;;18.73;;
67146;SDS011;70072;52.036;5.558;2023-05-10T07:07:34;35.22;;;17.35;;
67146;SDS011;70072;52.036;5.558;2023-05-10T07:10:00;34.40;;;17.33;;
67146;SDS011;70072;52.036;5.558;2023-05-10T07:12:25;28.08;;;16.80;;
67146;SDS011;70072;52.036;5.558;2023-05-10T07:14:51;34.88;;;17.17;;
67146;SDS011;70072;52.036;5.558;2023-05-10T07:17:17;31.98;;;17.52;;
67146;SDS011;70072;52.036;5.558;2023-05-10T07:19:43;31.60;;;17.35;;
67146;SDS011;70072;52.036;5.558;2023-05-10T07:22:08;30.88;;;16.90;;
67146;SDS011;70072;52.036;5.558;2023-05-10T07:24:34;28.77;;;16.95;;
67146;SDS011;70072;52.036;5.558;2023-05-10T07:27:00;32.30;;;17.50;;
67146;SDS011;70072;52.036;5.558;2023-05-10T07:29:26;34.53;;;17.23;;
67146;SDS011;70072;52.036;5.558;2023-05-10T07:31:51;37.35;;;17.17;;
67146;SDS011;70072;52.036;5.558;2023-05-10T07:34:18;30.50;;;17.17;;
67146;SDS011;70072;52.036;5.558;2023-05-10T07:36:43;39.63;;;16.55;;
67146;SDS011;70072;52.036;5.558;2023-05-10T07:39:09;36.00;;;17.45;;
67146;SDS011;70072;52.036;5.558;2023-05-10T07:41:35;32.35;;;16.00;;
67146;SDS011;70072;52.036;5.558;2023-05-10T07:44:02;39.58;;;17.00;;
67146;SDS011;70072;52.036;5.558;2023-05-10T07:46:28;40.58;;;16.58;;
67146;SDS011;70072;52.036;5.558;2023-05-10T07:48:54;34.50;;;16.55;;
67146;SDS011;70072;52.036;5.558;2023-05-10T07:51:20;34.90;;;16.67;;
67146;SDS011;70072;52.036;5.558;2023-05-10T07:53:46;28.27;;;16.52;;
67146;SDS011;70072;52.036;5.558;2023-05-10T07:56:21;33.95;;;16.48;;
67146;SDS011;70072;52.036;5.558;2023-05-10T07:58:49;30.88;;;16.13;;
67146;SDS011;70072;52.036;5.558;2023-05-10T08:01:15;30.23;;;15.95;;
67146;SDS011;70072;52.036;5.558;2023-05-10T08:03:41;26.70;;;15.48;;
67146;SDS011;70072;52.036;5.558;2023-05-10T08:06:06;28.25;;;15.25;;
67146;SDS011;70072;52.036;5.558;2023-05-10T08:08:32;33.65;;;15.20;;
67146;SDS011;70072;52.036;5.558;2023-05-10T08:10:58;26.63;;;14.13;;
67146;SDS011;70072;52.036;5.558;2023-05-10T08:13:23;34.13;;;14.43;;
67146;SDS011;70072;52.036;5.558;2023-05-10T08:15:49;27.15;;;13.25;;
67146;SDS011;70072;52.036;5.558;2023-05-10T08:18:17;27.65;;;13.82;;
67146;SDS011;70072;52.036;5.558;2023-05-10T08:20:43;23.50;;;13.18;;
67146;SDS011;70072;52.036;5.558;2023-05-10T08:23:09;25.00;;;11.38;;
67146;SDS011;70072;52.036;5.558;2023-05-10T08:25:34;20.30;;;11.65;;
67146;SDS011;70072;52.036;5.558;2023-05-10T08:28:00;25.27;;;11.45;;
67146;SDS011;70072;52.036;5.558;2023-05-10T08:30:26;20.75;;;11.38;;
67146;SDS011;70072;52.036;5.558;2023-05-10T08:32:52;23.15;;;10.82;;
67146;SDS011;70072;52.036;5.558;2023-05-10T08:35:17;24.58;;;10.45;;
67146;SDS011;70072;52.036;5.558;2023-05-10T08:37:43;30.02;;;10.00;;
67146;SDS011;70072;52.036;5.558;2023-05-10T08:40:09;23.63;;;11.07;;
67146;SDS011;70072;52.036;5.558;2023-05-10T08:42:38;18.27;;;10.20;;
67146;SDS011;70072;52.036;5.558;2023-05-10T08:45:06;25.65;;;10.80;;
67146;SDS011;70072;52.036;5.558;2023-05-10T08:47:34;29.15;;;10.77;;
67146;SDS011;70072;52.036;5.558;2023-05-10T08:50:03;20.25;;;10.77;;
67146;SDS011;70072;52.036;5.558;2023-05-10T08:52:29;21.92;;;10.18;;
67146;SDS011;70072;52.036;5.558;2023-05-10T08:54:57;16.42;;;9.57;;
67146;SDS011;70072;52.036;5.558;2023-05-10T08:57:23;23.70;;;9.90;;
67146;SDS011;70072;52.036;5.558;2023-05-10T08:59:49;24.35;;;9.95;;
67146;SDS011;70072;52.036;5.558;2023-05-10T09:02:15;24.67;;;9.63;;
67146;SDS011;70072;52.036;5.558;2023-05-10T09:04:45;22.52;;;9.93;;
67146;SDS011;70072;52.036;5.558;2023-05-10T09:07:11;23.67;;;10.15;;
67146;SDS011;70072;52.036;5.558;2023-05-10T09:09:37;19.77;;;9.35;;
67146;SDS011;70072;52.036;5.558;2023-05-10T09:12:03;23.15;;;9.45;;
67146;SDS011;70072;52.036;5.558;2023-05-10T09:14:29;18.50;;;8.82;;
67146;SDS011;70072;52.036;5.558;2023-05-10T09:16:58;16.67;;;8.77;;
67146;SDS011;70072;52.036;5.558;2023-05-10T09:19:24;17.58;;;8.48;;
67146;SDS011;70072;52.036;5.558;2023-05-10T09:21:49;21.98;;;8.68;;
67146;SDS011;70072;52.036;5.558;2023-05-10T09:24:15;18.90;;;9.35;;
67146;SDS011;70072;52.036;5.558;2023-05-10T09:26:47;18.38;;;8.88;;
67146;SDS011;70072;52.036;5.558;2023-05-10T09:29:13;15.20;;;8.52;;
67146;SDS011;70072;52.036;5.558;2023-05-10T09:31:43;14.00;;;8.18;;
67146;SDS011;70072;52.036;5.558;2023-05-10T09:34:11;16.35;;;8.60;;
67146;SDS011;70072;52.036;5.558;2023-05-10T09:36:55;16.17;;;8.48;;
67146;SDS011;70072;52.036;5.558;2023-05-10T09:39:31;13.93;;;8.45;;
67146;SDS011;70072;52.036;5.558;2023-05-10T09:42:02;28.65;;;8.73;;
67146;SDS011;70072;52.036;5.558;2023-05-10T09:44:29;28.83;;;8.38;;
67146;SDS011;70072;52.036;5.558;2023-05-10T09:46:55;25.15;;;8.48;;
67146;SDS011;70072;52.036;5.558;2023-05-10T09:49:21;26.08;;;8.05;;
67146;SDS011;70072;52.036;5.558;2023-05-10T09:51:50;14.25;;;7.43;;
67146;SDS011;70072;52.036;5.558;2023-05-10T09:54:33;24.17;;;7.53;;
67146;SDS011;70072;52.036;5.558;2023-05-10T09:57:00;18.98;;;8.05;;
67146;SDS011;70072;52.036;5.558;2023-05-10T09:59:26;16.42;;;7.22;;
67146;SDS011;70072;52.036;5.558;2023-05-10T10:01:53;15.82;;;7.78;;
67146;SDS011;70072;52.036;5.558;2023-05-10T10:04:22;17.63;;;7.75;;
67146;SDS011;70072;52.036;5.558;2023-05-10T10:06:57;23.30;;;7.47;;
67146;SDS011;70072;52.036;5.558;2023-05-10T10:09:25;16.25;;;7.80;;
67146;SDS011;70072;52.036;5.558;2023-05-10T10:11:50;22.38;;;7.35;;
67146;SDS011;70072;52.036;5.558;2023-05-10T10:14:18;17.10;;;7.57;;
67146;SDS011;70072;52.036;5.558;2023-05-10T10:16:43;20.45;;;7.47;;
67146;SDS011;70072;52.036;5.558;2023-05-10T10:19:10;21.50;;;6.63;;
67146;SDS011;70072;52.036;5.558;2023-05-10T10:21:36;22.30;;;7.00;;
67146;SDS011;70072;52.036;5.558;2023-05-10T10:24:01;13.43;;;6.43;;
67146;SDS011;70072;52.036;5.558;2023-05-10T10:26:30;22.15;;;6.50;;
67146;SDS011;70072;52.036;5.558;2023-05-10T10:31:53;14.90;;;6.35;;
67146;SDS011;70072;52.036;5.558;2023-05-10T10:34:39;12.43;;;6.65;;
67146;SDS011;70072;52.036;5.558;2023-05-10T10:37:05;23.05;;;6.30;;
67146;SDS011;70072;52.036;5.558;2023-05-10T10:39:31;17.70;;;6.35;;
67146;SDS011;70072;52.036;5.558;2023-05-10T10:41:58;9.23;;;5.50;;
67146;SDS011;70072;52.036;5.558;2023-05-10T10:44:25;13.82;;;6.40;;
67146;SDS011;70072;52.036;5.558;2023-05-10T10:47:05;23.27;;;7.20;;
67146;SDS011;70072;52.036;5.558;2023-05-10T10:49:37;62.20;;;23.92;;
67146;SDS011;70072;52.036;5.558;2023-05-10T10:52:22;96.97;;;32.00;;
67146;SDS011;70072;52.036;5.558;2023-05-10T11:03:04;45.03;;;21.58;;
67146;SDS011;70072;52.036;5.558;2023-05-10T11:08:10;39.70;;;18.13;;
67146;SDS011;70072;52.036;5.558;2023-05-10T11:10:37;37.05;;;16.48;;
67146;SDS011;70072;52.036;5.558;2023-05-10T11:18:19;37.17;;;15.50;;
67146;SDS011;70072;52.036;5.558;2023-05-10T11:20:50;38.65;;;14.40;;
67146;SDS011;70072;52.036;5.558;2023-05-10T11:23:17;28.75;;;13.63;;
67146;SDS011;70072;52.036;5.558;2023-05-10T11:25:43;28.17;;;12.68;;
67146;SDS011;70072;52.036;5.558;2023-05-10T11:28:13;33.03;;;12.85;;
67146;SDS011;70072;52.036;5.558;2023-05-10T11:30:40;32.67;;;13.30;;
67146;SDS011;70072;52.036;5.558;2023-05-10T11:33:08;28.15;;;12.38;;
67146;SDS011;70072;52.036;5.558;2023-05-10T11:35:38;30.85;;;12.43;;
67146;SDS011;70072;52.036;5.558;2023-05-10T11:38:05;21.85;;;11.25;;
67146;SDS011;70072;52.036;5.558;2023-05-10T11:40:38;25.38;;;10.95;;
67146;SDS011;70072;52.036;5.558;2023-05-10T11:43:04;22.33;;;10.50;;
67146;SDS011;70072;52.036;5.558;2023-05-10T11:45:34;20.10;;;10.30;;
67146;SDS011;70072;52.036;5.558;2023-05-10T11:48:00;18.88;;;9.63;;
67146;SDS011;70072;52.036;5.558;2023-05-10T11:50:26;24.08;;;10.23;;
67146;SDS011;70072;52.036;5.558;2023-05-10T11:52:53;19.35;;;10.02;;
67146;SDS011;70072;52.036;5.558;2023-05-10T11:55:23;22.45;;;9.45;;
67146;SDS011;70072;52.036;5.558;2023-05-10T11:58:00;19.17;;;9.45;;
67146;SDS011;70072;52.036;5.558;2023-05-10T12:00:27;16.30;;;8.48;;
67146;SDS011;70072;52.036;5.558;2023-05-10T12:02:53;19.75;;;8.75;;
67146;SDS011;70072;52.036;5.558;2023-05-10T12:05:18;21.63;;;8.55;;
67146;SDS011;70072;52.036;5.558;2023-05-10T12:07:44;16.98;;;8.00;;
67146;SDS011;70072;52.036;5.558;2023-05-10T12:10:11;18.75;;;7.90;;
67146;SDS011;70072;52.036;5.558;2023-05-10T12:12:46;16.88;;;7.95;;
67146;SDS011;70072;52.036;5.558;2023-05-10T12:15:18;14.93;;;7.80;;
67146;SDS011;70072;52.036;5.558;2023-05-10T12:17:46;27.30;;;7.70;;
67146;SDS011;70072;52.036;5.558;2023-05-10T12:20:13;24.15;;;8.13;;
67146;SDS011;70072;52.036;5.558;2023-05-10T12:22:39;11.93;;;7.38;;
67146;SDS011;70072;52.036;5.558;2023-05-10T12:25:05;18.92;;;7.28;;
67146;SDS011;70072;52.036;5.558;2023-05-10T12:27:33;15.38;;;7.10;;
67146;SDS011;70072;52.036;5.558;2023-05-10T12:29:59;15.52;;;6.57;;
67146;SDS011;70072;52.036;5.558;2023-05-10T12:32:38;12.10;;;6.85;;
67146;SDS011;70072;52.036;5.558;2023-05-10T12:35:04;14.27;;;6.43;;
67146;SDS011;70072;52.036;5.558;2023-05-10T12:37:30;17.00;;;6.20;;
67146;SDS011;70072;52.036;5.558;2023-05-10T12:40:00;10.75;;;6.03;;
67146;SDS011;70072;52.036;5.558;2023-05-10T12:42:26;17.55;;;7.00;;
67146;SDS011;70072;52.036;5.558;2023-05-10T12:44:55;12.02;;;6.20;;
67146;SDS011;70072;52.036;5.558;2023-05-10T12:47:21;13.98;;;6.40;;
67146;SDS011;70072;52.036;5.558;2023-05-10T12:49:47;14.57;;;6.25;;
67146;SDS011;70072;52.036;5.558;2023-05-10T12:52:12;14.02;;;5.90;;
67146;SDS011;70072;52.036;5.558;2023-05-10T12:54:38;10.60;;;5.40;;
67146;SDS011;70072;52.036;5.558;2023-05-10T12:57:03;12.93;;;6.00;;
67146;SDS011;70072;52.036;5.558;2023-05-10T12:59:29;11.07;;;5.88;;
67146;SDS011;70072;52.036;5.558;2023-05-10T13:01:56;8.80;;;5.30;;
67146;SDS011;70072;52.036;5.558;2023-05-10T13:04:22;11.23;;;5.55;;
67146;SDS011;70072;52.036;5.558;2023-05-10T13:06:48;11.98;;;5.55;;
67146;SDS011;70072;52.036;5.558;2023-05-10T13:09:13;8.98;;;5.25;;
67146;SDS011;70072;52.036;5.558;2023-05-10T13:11:40;9.93;;;5.03;;
67146;SDS011;70072;52.036;5.558;2023-05-10T13:14:05;10.00;;;4.82;;
67146;SDS011;70072;52.036;5.558;2023-05-10T13:16:31;13.23;;;4.45;;
67146;SDS011;70072;52.036;5.558;2023-05-10T13:18:57;11.63;;;4.85;;
67146;SDS011;70072;52.036;5.558;2023-05-10T13:21:23;14.65;;;4.90;;
67146;SDS011;70072;52.036;5.558;2023-05-10T13:23:52;7.43;;;4.80;;
67146;SDS011;70072;52.036;5.558;2023-05-10T13:26:18;10.68;;;5.05;;
67146;SDS011;70072;52.036;5.558;2023-05-10T13:28:44;7.82;;;4.55;;
67146;SDS011;70072;52.036;5.558;2023-05-10T13:31:10;9.15;;;4.45;;
67146;SDS011;70072;52.036;5.558;2023-05-10T13:33:36;7.75;;;4.40;;
67146;SDS011;70072;52.036;5.558;2023-05-10T13:36:02;8.45;;;4.28;;
67146;SDS011;70072;52.036;5.558;2023-05-10T13:38:27;7.22;;;4.35;;
67146;SDS011;70072;52.036;5.558;2023-05-10T13:40:53;23.83;;;4.30;;
67146;SDS011;70072;52.036;5.558;2023-05-10T13:43:19;8.25;;;3.75;;
67146;SDS011;70072;52.036;5.558;2023-05-10T13:45:44;7.07;;;4.30;;
67146;SDS011;70072;52.036;5.558;2023-05-10T13:48:10;9.38;;;4.28;;
67146;SDS011;70072;52.036;5.558;2023-05-10T13:50:36;11.90;;;3.85;;
67146;SDS011;70072;52.036;5.558;2023-05-10T13:53:04;9.65;;;3.80;;
67146;SDS011;70072;52.036;5.558;2023-05-10T13:55:30;11.07;;;3.72;;
67146;SDS011;70072;52.036;5.558;2023-05-10T13:57:56;9.80;;;3.70;;
67146;SDS011;70072;52.036;5.558;2023-05-10T14:00:21;8.32;;;3.70;;
67146;SDS011;70072;52.036;5.558;2023-05-10T14:02:47;6.53;;;3.55;;
67146;SDS011;70072;52.036;5.558;2023-05-10T14:05:13;5.07;;;3.47;;
67146;SDS011;70072;52.036;5.558;2023-05-10T14:07:38;5.60;;;3.65;;
67146;SDS011;70072;52.036;5.558;2023-05-10T14:10:04;5.68;;;3.40;;
67146;SDS011;70072;52.036;5.558;2023-05-10T14:12:31;12.60;;;3.58;;
67146;SDS011;70072;52.036;5.558;2023-05-10T14:14:56;10.15;;;3.75;;
67146;SDS011;70072;52.036;5.558;2023-05-10T14:17:23;5.70;;;3.42;;
67146;SDS011;70072;52.036;5.558;2023-05-10T14:19:48;4.55;;;2.90;;
67146;SDS011;70072;52.036;5.558;2023-05-10T14:22:14;6.18;;;3.92;;
67146;SDS011;70072;52.036;5.558;2023-05-10T14:24:40;5.35;;;3.22;;
67146;SDS011;70072;52.036;5.558;2023-05-10T14:27:05;6.65;;;3.33;;
67146;SDS011;70072;52.036;5.558;2023-05-10T14:29:32;5.20;;;2.92;;
67146;SDS011;70072;52.036;5.558;2023-05-10T14:31:57;4.47;;;3.30;;
67146;SDS011;70072;52.036;5.558;2023-05-10T14:34:23;4.55;;;3.00;;
67146;SDS011;70072;52.036;5.558;2023-05-10T14:36:49;8.50;;;3.10;;
67146;SDS011;70072;52.036;5.558;2023-05-10T14:39:14;5.20;;;3.22;;
67146;SDS011;70072;52.036;5.558;2023-05-10T14:41:43;7.57;;;3.42;;
67146;SDS011;70072;52.036;5.558;2023-05-10T14:44:09;3.28;;;2.67;;
67146;SDS011;70072;52.036;5.558;2023-05-10T14:46:35;5.25;;;3.05;;
67146;SDS011;70072;52.036;5.558;2023-05-10T14:49:01;3.90;;;2.92;;
67146;SDS011;70072;52.036;5.558;2023-05-10T14:51:26;4.47;;;3.13;;
67146;SDS011;70072;52.036;5.558;2023-05-10T14:53:52;6.13;;;3.53;;
67146;SDS011;70072;52.036;5.558;2023-05-10T14:56:20;5.45;;;3.17;;
67146;SDS011;70072;52.036;5.558;2023-05-10T14:58:49;7.50;;;3.17;;
67146;SDS011;70072;52.036;5.558;2023-05-10T15:01:15;5.70;;;3.20;;
67146;SDS011;70072;52.036;5.558;2023-05-10T15:03:40;5.32;;;2.90;;